Time;durP1;ratioP1;P1;durP2;ratioP2;P2;SDS_P1;SDS_P2;PMS_P1;PMS_P2;Temp;Humidity;BMP_temperature;BMP_pressure;BME280_temperature;BME280_humidity;BME280_pressure;Samples;Min_cycle;Max_cycle;Signal;HPM_P1;HPM_P2
2023/12/14 00:00:18;;;;;;;0.60;0.60;;;10.30;71.60;;;;;;5070999;28;20025;-72
2023/12/14 00:02:43;;;;;;;0.73;0.73;;;10.30;71.70;;;;;;5071322;28;20028;-72
2023/12/14 00:05:09;;;;;;;0.70;0.70;;;10.30;71.60;;;;;;5070896;28;20032;-72
2023/12/14 00:07:34;;;;;;;0.70;0.70;;;10.30;71.60;;;;;;5071399;28;20499;-72
2023/12/14 00:10:00;;;;;;;0.45;0.45;;;10.30;71.60;;;;;;5089865;28;20085;-71
2023/12/14 00:12:25;;;;;;;0.77;0.77;;;10.20;71.30;;;;;;5090483;28;20094;-71
2023/12/14 00:14:51;;;;;;;0.50;0.50;;;10.20;71.30;;;;;;5090861;28;20025;-72
2023/12/14 00:17:16;;;;;;;0.50;0.50;;;10.20;71.40;;;;;;5091016;28;20064;-72
2023/12/14 00:19:42;;;;;;;0.43;0.43;;;10.20;71.40;;;;;;5090798;28;20029;-71
2023/12/14 00:22:08;;;;;;;0.47;0.47;;;10.20;71.40;;;;;;5072973;28;20391;-72
2023/12/14 00:24:33;;;;;;;0.40;0.40;;;10.10;71.50;;;;;;5090812;28;20084;-72
2023/12/14 00:27:35;;;;;;;0.50;0.50;;;10.10;71.60;;;;;;5090620;28;20067;-71
2023/12/14 00:30:01;;;;;;;0.60;0.60;;;10.10;71.70;;;;;;5055465;28;20037;-72
2023/12/14 00:32:26;;;;;;;0.55;0.55;;;10.10;71.60;;;;;;5070868;28;20032;-71
2023/12/14 00:34:52;;;;;;;0.50;0.50;;;10.10;71.50;;;;;;5070863;28;20372;-71
2023/12/14 00:37:17;;;;;;;0.57;0.57;;;10.10;71.50;;;;;;5052764;28;20112;-71
2023/12/14 00:39:43;;;;;;;0.50;0.50;;;10.10;71.40;;;;;;5070429;28;20476;-72
2023/12/14 00:42:08;;;;;;;1.50;1.40;;;10.00;71.40;;;;;;5070877;28;20029;-72
2023/12/14 00:44:33;;;;;;;0.55;0.55;;;10.00;71.40;;;;;;5090028;28;20043;-72
2023/12/14 00:47:00;;;;;;;0.40;0.40;;;10.00;71.40;;;;;;5090701;28;20031;-72
2023/12/14 00:49:27;;;;;;;0.45;0.45;;;10.00;71.50;;;;;;5089457;28;20039;-72
2023/12/14 00:51:53;;;;;;;0.60;0.60;;;10.00;71.60;;;;;;5082254;28;20028;-72
2023/12/14 00:54:18;;;;;;;2.50;1.35;;;10.00;71.60;;;;;;5094040;28;20035;-72
2023/12/14 00:56:44;;;;;;;0.47;0.47;;;10.10;71.60;;;;;;5088618;28;20064;-71
2023/12/14 00:59:09;;;;;;;0.50;0.50;;;10.00;71.50;;;;;;5074214;28;20029;-72
2023/12/14 01:01:35;;;;;;;0.40;0.40;;;10.00;71.40;;;;;;5074445;28;20059;-72
2023/12/14 01:04:00;;;;;;;0.50;0.50;;;9.90;71.40;;;;;;5074213;28;20032;-72
2023/12/14 01:06:26;;;;;;;0.55;0.55;;;10.00;71.40;;;;;;5074570;28;20024;-71
2023/12/14 01:08:51;;;;;;;0.50;0.50;;;9.90;71.40;;;;;;5079643;28;20126;-72
2023/12/14 01:11:17;;;;;;;0.65;0.65;;;9.80;71.30;;;;;;5080921;28;20063;-72
2023/12/14 01:13:42;;;;;;;0.60;0.60;;;9.80;71.20;;;;;;5092876;28;20043;-71
2023/12/14 01:16:08;;;;;;;0.40;0.40;;;9.80;71.40;;;;;;5093452;28;20474;-71
2023/12/14 01:18:33;;;;;;;0.50;0.50;;;9.80;71.50;;;;;;5095679;28;20070;-72
2023/12/14 01:20:59;;;;;;;0.80;0.80;;;9.80;71.50;;;;;;5094236;28;20111;-71
2023/12/14 01:23:24;;;;;;;0.85;0.85;;;9.80;71.40;;;;;;5093869;28;20135;-71
2023/12/14 01:25:50;;;;;;;0.52;0.52;;;9.70;71.30;;;;;;5092969;28;20039;-71
2023/12/14 01:28:15;;;;;;;0.50;0.50;;;9.70;71.20;;;;;;5093541;28;20036;-71
2023/12/14 01:30:41;;;;;;;0.50;0.50;;;9.70;71.30;;;;;;5075251;28;20072;-71
2023/12/14 01:33:06;;;;;;;1.58;1.48;;;9.70;71.20;;;;;;5093525;28;20074;-71
2023/12/14 01:35:32;;;;;;;0.47;0.47;;;9.70;71.20;;;;;;5093657;28;20530;-71
2023/12/14 01:37:57;;;;;;;0.40;0.40;;;9.60;71.40;;;;;;5080819;28;20132;-71
2023/12/14 01:40:23;;;;;;;0.50;0.50;;;9.70;71.30;;;;;;5097258;28;20081;-73
2023/12/14 01:42:48;;;;;;;0.60;0.60;;;9.60;71.40;;;;;;5106279;28;20039;-73
2023/12/14 01:45:16;;;;;;;0.50;0.50;;;9.60;71.60;;;;;;5099722;28;20034;-73
2023/12/14 01:47:42;;;;;;;0.57;0.57;;;9.70;71.70;;;;;;5109345;28;20028;-73
2023/12/14 01:50:08;;;;;;;0.50;0.50;;;9.70;71.60;;;;;;5109283;28;20028;-74
2023/12/14 01:52:33;;;;;;;0.40;0.40;;;9.70;71.60;;;;;;5121124;28;20028;-73
2023/12/14 01:54:59;;;;;;;0.57;0.57;;;9.70;71.30;;;;;;5111313;28;20028;-73
2023/12/14 01:57:25;;;;;;;0.47;0.47;;;9.70;71.30;;;;;;5119051;28;20454;-73
2023/12/14 01:59:50;;;;;;;0.65;0.65;;;9.70;71.20;;;;;;5107055;28;20039;-73
2023/12/14 02:02:16;;;;;;;0.50;0.50;;;9.70;71.20;;;;;;5108136;28;20032;-73
2023/12/14 02:04:41;;;;;;;0.45;0.45;;;9.70;71.20;;;;;;5109910;28;20032;-71
2023/12/14 02:07:07;;;;;;;0.40;0.40;;;9.60;71.10;;;;;;5109898;28;20083;-72
2023/12/14 02:09:32;;;;;;;0.40;0.40;;;9.60;71.20;;;;;;5110000;28;20039;-72
2023/12/14 02:11:58;;;;;;;0.60;0.60;;;9.50;71.20;;;;;;5109049;28;20501;-72
2023/12/14 02:14:23;;;;;;;0.80;0.80;;;9.50;71.10;;;;;;5110036;28;20048;-72
2023/12/14 02:16:49;;;;;;;0.60;0.60;;;9.50;71.10;;;;;;5102633;28;20028;-72
2023/12/14 02:19:14;;;;;;;0.40;0.40;;;9.40;71.10;;;;;;5109801;28;20409;-72
2023/12/14 02:21:40;;;;;;;0.50;0.50;;;9.40;71.20;;;;;;5090684;28;20495;-71
2023/12/14 02:24:05;;;;;;;0.50;0.50;;;9.40;71.50;;;;;;5109619;28;20028;-74
2023/12/14 02:26:31;;;;;;;0.50;0.50;;;9.40;71.40;;;;;;5110441;28;20023;-71
2023/12/14 02:28:56;;;;;;;0.40;0.40;;;9.40;71.30;;;;;;5107929;28;20089;-71
2023/12/14 02:31:23;;;;;;;0.50;0.50;;;9.40;71.20;;;;;;5108695;28;20042;-71
2023/12/14 02:33:49;;;;;;;0.50;0.50;;;9.40;71.20;;;;;;5108055;28;20039;-72
2023/12/14 02:36:14;;;;;;;0.50;0.50;;;9.40;71.20;;;;;;5107885;28;20432;-73
2023/12/14 02:38:40;;;;;;;0.60;0.60;;;9.30;71.20;;;;;;5110428;28;20038;-72
2023/12/14 02:41:05;;;;;;;0.40;0.40;;;9.40;71.10;;;;;;5118667;28;20386;-72
2023/12/14 02:43:31;;;;;;;0.50;0.50;;;9.30;71.00;;;;;;5105602;28;20036;-72
2023/12/14 02:46:01;;;;;;;0.60;0.60;;;9.30;71.10;;;;;;5105675;28;20032;-72
2023/12/14 02:48:28;;;;;;;0.52;0.52;;;9.30;71.00;;;;;;5097021;28;20029;-72
2023/12/14 02:50:54;;;;;;;0.50;0.50;;;9.30;71.00;;;;;;5104555;28;20028;-70
2023/12/14 02:53:19;;;;;;;0.50;0.50;;;9.30;71.20;;;;;;5081127;28;20492;-70
2023/12/14 02:55:45;;;;;;;0.70;0.70;;;9.30;71.20;;;;;;5092003;28;20423;-69
2023/12/14 02:58:10;;;;;;;0.70;0.70;;;9.30;71.00;;;;;;5091074;28;20059;-70
2023/12/14 03:00:36;;;;;;;0.50;0.50;;;9.30;71.20;;;;;;5087352;28;20430;-69
2023/12/14 03:03:01;;;;;;;0.70;0.70;;;9.30;71.00;;;;;;5094005;28;20077;-70
2023/12/14 03:05:27;;;;;;;0.43;0.43;;;9.20;71.10;;;;;;5091868;28;20039;-69
2023/12/14 03:07:52;;;;;;;0.50;0.50;;;9.20;71.00;;;;;;5092023;28;20036;-69
2023/12/14 03:10:18;;;;;;;0.50;0.50;;;9.10;71.20;;;;;;5088458;28;20050;-69
2023/12/14 03:12:44;;;;;;;0.80;0.80;;;9.20;71.30;;;;;;5083896;28;20032;-69
2023/12/14 03:15:09;;;;;;;0.50;0.50;;;9.20;71.20;;;;;;5089184;28;20106;-69
2023/12/14 03:17:35;;;;;;;0.50;0.50;;;9.20;71.30;;;;;;5090841;28;20064;-69
2023/12/14 03:20:01;;;;;;;0.60;0.60;;;9.20;71.40;;;;;;5091578;28;20032;-69
2023/12/14 03:22:26;;;;;;;0.65;0.65;;;9.20;71.40;;;;;;5086523;28;20031;-70
2023/12/14 03:24:52;;;;;;;0.50;0.50;;;9.20;71.50;;;;;;5091765;28;20391;-69
2023/12/14 03:27:17;;;;;;;0.50;0.50;;;9.20;71.50;;;;;;5072975;28;20032;-69
2023/12/14 03:29:43;;;;;;;0.50;0.50;;;9.30;71.50;;;;;;5091495;28;20035;-69
2023/12/14 03:32:08;;;;;;;0.80;0.80;;;9.30;71.50;;;;;;5091116;28;20028;-69
2023/12/14 03:34:34;;;;;;;0.40;0.40;;;9.30;71.50;;;;;;5087697;28;20032;-69
2023/12/14 03:37:01;;;;;;;0.50;0.50;;;9.30;71.50;;;;;;5082981;28;20106;-70
2023/12/14 03:39:27;;;;;;;0.43;0.43;;;9.30;71.40;;;;;;5091720;28;20451;-70
2023/12/14 03:41:55;;;;;;;0.60;0.60;;;9.30;71.40;;;;;;5091947;28;20099;-69
2023/12/14 03:44:21;;;;;;;0.50;0.50;;;9.20;71.30;;;;;;5091488;28;20036;-69
2023/12/14 03:46:46;;;;;;;0.40;0.40;;;9.20;71.10;;;;;;5091726;28;20520;-69
2023/12/14 03:49:12;;;;;;;0.77;0.77;;;9.20;71.00;;;;;;5055099;28;20070;-70
2023/12/14 03:51:37;;;;;;;0.47;0.47;;;9.10;71.00;;;;;;5071370;28;20037;-70
2023/12/14 03:54:03;;;;;;;0.50;0.50;;;9.10;71.00;;;;;;5071133;28;20035;-70
2023/12/14 03:56:28;;;;;;;0.55;0.55;;;9.10;71.10;;;;;;5071475;28;20021;-70
2023/12/14 03:58:57;;;;;;;3.85;0.75;;;9.10;71.10;;;;;;5071042;28;20029;-69
2023/12/14 04:01:23;;;;;;;0.50;0.50;;;9.10;71.00;;;;;;5071583;28;20059;-70
2023/12/14 04:03:48;;;;;;;0.40;0.40;;;9.00;71.00;;;;;;5071078;28;20072;-70
2023/12/14 04:06:14;;;;;;;0.40;0.40;;;9.00;71.10;;;;;;5053009;28;20319;-70
2023/12/14 04:08:41;;;;;;;0.80;0.80;;;9.00;70.90;;;;;;5071010;28;20060;-70
2023/12/14 04:11:07;;;;;;;0.57;0.57;;;9.00;71.00;;;;;;5070729;28;20064;-70
2023/12/14 04:13:33;;;;;;;0.43;0.43;;;9.00;71.00;;;;;;5070987;28;20055;-71
2023/12/14 04:15:59;;;;;;;0.50;0.50;;;9.00;71.10;;;;;;5071419;28;20025;-71
2023/12/14 04:18:24;;;;;;;0.60;0.60;;;9.00;71.10;;;;;;5070890;28;20545;-72
2023/12/14 04:20:50;;;;;;;0.98;0.98;;;9.10;71.10;;;;;;5071099;28;20028;-70
2023/12/14 04:23:15;;;;;;;0.60;0.60;;;9.10;71.10;;;;;;5052729;28;20029;-70
2023/12/14 04:25:41;;;;;;;0.50;0.50;;;9.10;71.10;;;;;;5073326;28;20039;-70
2023/12/14 04:28:06;;;;;;;0.82;0.82;;;9.00;71.20;;;;;;5074830;28;20036;-70
2023/12/14 04:30:32;;;;;;;0.50;0.50;;;9.00;71.20;;;;;;5075059;28;20032;-70
2023/12/14 04:32:58;;;;;;;0.50;0.50;;;9.00;71.20;;;;;;5074832;28;20040;-70
2023/12/14 04:35:23;;;;;;;0.50;0.50;;;9.10;71.20;;;;;;5074530;28;20523;-71
2023/12/14 04:37:49;;;;;;;0.70;0.65;;;9.10;71.20;;;;;;5074703;28;20103;-70
2023/12/14 04:40:14;;;;;;;0.50;0.50;;;9.10;71.20;;;;;;5074584;28;20032;-71
2023/12/14 04:42:40;;;;;;;1.13;1.02;;;9.10;71.20;;;;;;5075828;28;20123;-70
2023/12/14 04:45:06;;;;;;;0.47;0.47;;;9.10;71.20;;;;;;5091025;28;20051;-71
2023/12/14 04:47:32;;;;;;;0.77;0.70;;;9.10;71.30;;;;;;5093733;28;20503;-71
2023/12/14 04:49:57;;;;;;;0.82;0.82;;;9.10;71.40;;;;;;5094747;28;20038;-71
2023/12/14 04:52:23;;;;;;;0.70;0.70;;;9.10;71.40;;;;;;5076575;28;20101;-70
2023/12/14 04:54:48;;;;;;;0.70;0.70;;;9.10;71.30;;;;;;5091154;28;20413;-71
2023/12/14 04:57:14;;;;;;;0.40;0.40;;;9.10;71.20;;;;;;5086759;28;20025;-71
2023/12/14 04:59:42;;;;;;;0.70;0.70;;;9.20;71.20;;;;;;5094072;28;20542;-71
2023/12/14 05:02:07;;;;;;;1.23;1.17;;;9.10;71.00;;;;;;5088629;28;20031;-70
2023/12/14 05:04:33;;;;;;;0.55;0.55;;;9.10;71.10;;;;;;5074556;28;20028;-71
2023/12/14 05:06:58;;;;;;;0.60;0.60;;;9.10;71.10;;;;;;5074537;28;20036;-70
2023/12/14 05:09:23;;;;;;;0.95;0.95;;;9.10;71.10;;;;;;5073976;28;20040;-71
2023/12/14 05:11:49;;;;;;;2.83;2.13;;;9.10;71.10;;;;;;5074314;28;20123;-71
2023/12/14 05:14:14;;;;;;;1.02;1.02;;;9.10;71.20;;;;;;5079770;28;20024;-71
2023/12/14 05:16:40;;;;;;;0.50;0.50;;;9.10;71.10;;;;;;5094426;28;20024;-72
2023/12/14 05:19:05;;;;;;;0.68;0.68;;;9.00;71.10;;;;;;5072059;28;20024;-71
2023/12/14 05:21:32;;;;;;;0.70;0.70;;;9.00;71.10;;;;;;5091998;28;20040;-70
2023/12/14 05:23:57;;;;;;;0.80;0.80;;;9.00;71.00;;;;;;5091284;28;20525;-71
2023/12/14 05:26:23;;;;;;;1.42;1.33;;;9.00;71.10;;;;;;5091986;28;20111;-71
2023/12/14 05:28:48;;;;;;;0.60;0.60;;;9.00;71.00;;;;;;5087212;28;20048;-70
2023/12/14 05:31:14;;;;;;;0.40;0.40;;;9.00;70.90;;;;;;5070158;28;20035;-71
2023/12/14 05:33:39;;;;;;;0.60;0.60;;;9.00;71.10;;;;;;5092904;28;20040;-70
2023/12/14 05:36:10;;;;;;;0.50;0.50;;;9.00;71.10;;;;;;5072795;28;20033;-70
2023/12/14 05:38:35;;;;;;;0.70;0.70;;;9.00;70.90;;;;;;5074101;28;20492;-70
2023/12/14 05:41:01;;;;;;;0.50;0.50;;;8.90;70.70;;;;;;5075908;28;20021;-70
2023/12/14 05:43:26;;;;;;;0.68;0.68;;;8.90;70.80;;;;;;5092122;28;20043;-70
2023/12/14 05:45:52;;;;;;;0.50;0.50;;;8.80;70.70;;;;;;5091699;28;20032;-70
2023/12/14 05:48:17;;;;;;;0.47;0.47;;;8.80;70.80;;;;;;5087552;28;20082;-71
2023/12/14 05:50:42;;;;;;;0.57;0.57;;;8.80;71.00;;;;;;5073222;28;20484;-70
2023/12/14 05:53:08;;;;;;;0.40;0.40;;;8.80;71.00;;;;;;5082051;28;20043;-70
2023/12/14 05:55:33;;;;;;;0.40;0.40;;;8.80;70.70;;;;;;5092479;28;20038;-71
2023/12/14 05:57:59;;;;;;;0.40;0.40;;;8.80;70.90;;;;;;5091609;28;20047;-71
2023/12/14 06:00:24;;;;;;;1.45;1.35;;;8.80;70.90;;;;;;5091371;28;20032;-71
2023/12/14 06:02:50;;;;;;;0.70;0.70;;;8.80;70.90;;;;;;5083724;28;20523;-70
2023/12/14 06:05:16;;;;;;;0.40;0.40;;;8.80;71.00;;;;;;5089737;28;20039;-71
2023/12/14 06:07:41;;;;;;;0.60;0.60;;;8.80;71.10;;;;;;5091550;28;20518;-71
2023/12/14 06:10:07;;;;;;;0.50;0.50;;;8.80;71.00;;;;;;5082686;28;20028;-71
2023/12/14 06:12:32;;;;;;;0.50;0.50;;;8.80;71.00;;;;;;5112694;28;20023;-70
2023/12/14 06:14:58;;;;;;;0.50;0.50;;;8.80;71.00;;;;;;5093907;28;20032;-71
2023/12/14 06:17:23;;;;;;;0.50;0.50;;;8.80;71.10;;;;;;5073062;28;20111;-70
2023/12/14 06:19:49;;;;;;;1.55;0.93;;;8.80;71.20;;;;;;5091399;28;20024;-72
2023/12/14 06:22:14;;;;;;;0.90;0.90;;;8.90;71.20;;;;;;5094716;28;20028;-72
2023/12/14 06:24:40;;;;;;;0.80;0.80;;;8.90;71.20;;;;;;5095360;28;20506;-72
2023/12/14 06:27:06;;;;;;;0.60;0.60;;;8.90;71.10;;;;;;5097220;28;20040;-72
2023/12/14 06:29:31;;;;;;;0.60;0.60;;;8.90;71.10;;;;;;5096648;28;20125;-72
2023/12/14 06:31:56;;;;;;;0.50;0.50;;;8.90;71.20;;;;;;5083365;28;20028;-73
2023/12/14 06:34:22;;;;;;;0.50;0.50;;;9.00;71.00;;;;;;5096433;28;20077;-72
2023/12/14 06:36:47;;;;;;;0.60;0.60;;;8.90;70.90;;;;;;5088671;28;20044;-72
2023/12/14 06:39:13;;;;;;;0.60;0.60;;;8.90;70.80;;;;;;5076385;28;20081;-73
2023/12/14 06:41:39;;;;;;;0.50;0.50;;;8.90;70.80;;;;;;5084323;28;20035;-72
2023/12/14 06:44:05;;;;;;;0.80;0.80;;;8.80;70.90;;;;;;5090029;28;20043;-72
2023/12/14 06:46:30;;;;;;;0.50;0.50;;;8.80;70.90;;;;;;5074805;28;20024;-72
2023/12/14 06:48:56;;;;;;;0.47;0.47;;;8.80;71.00;;;;;;5058219;28;20526;-73
2023/12/14 06:51:22;;;;;;;0.95;0.95;;;8.80;71.00;;;;;;5082396;28;20594;-73
2023/12/14 06:53:48;;;;;;;0.70;0.70;;;8.80;71.00;;;;;;5092224;28;20036;-73
2023/12/14 06:56:13;;;;;;;1.08;1.00;;;8.80;70.90;;;;;;5082360;28;20379;-72
2023/12/14 06:58:44;;;;;;;0.80;0.80;;;8.80;71.00;;;;;;5074853;28;20101;-72
2023/12/14 07:01:14;;;;;;;0.50;0.50;;;8.80;71.00;;;;;;5079147;28;20051;-72
2023/12/14 07:03:41;;;;;;;0.88;0.75;;;8.90;71.10;;;;;;5077442;28;20392;-72
2023/12/14 07:06:07;;;;;;;1.15;0.55;;;8.90;71.10;;;;;;5081165;28;20074;-72
2023/12/14 07:08:33;;;;;;;0.47;0.47;;;8.90;71.10;;;;;;5092702;28;20040;-72
2023/12/14 07:10:58;;;;;;;0.77;0.77;;;8.80;71.00;;;;;;5094713;28;20093;-72
2023/12/14 07:13:24;;;;;;;0.70;0.70;;;8.80;70.90;;;;;;5094421;28;20032;-72
2023/12/14 07:15:49;;;;;;;0.70;0.70;;;8.80;70.80;;;;;;5093306;28;20107;-72
2023/12/14 07:18:15;;;;;;;0.65;0.65;;;8.90;71.00;;;;;;5093282;28;20097;-72
2023/12/14 07:20:40;;;;;;;0.47;0.47;;;8.80;71.10;;;;;;5093135;28;20060;-72
2023/12/14 07:23:06;;;;;;;0.77;0.77;;;8.90;71.00;;;;;;5093637;28;20024;-72
2023/12/14 07:25:31;;;;;;;1.27;1.17;;;8.90;70.80;;;;;;5075552;28;20509;-73
2023/12/14 07:27:57;;;;;;;0.50;0.50;;;8.80;70.90;;;;;;5093850;28;20059;-72
2023/12/14 07:30:22;;;;;;;0.50;0.50;;;8.80;70.90;;;;;;5092852;28;20074;-72
2023/12/14 07:32:48;;;;;;;0.50;0.50;;;8.80;71.00;;;;;;5076775;28;20380;-72
2023/12/14 07:35:13;;;;;;;0.50;0.50;;;8.80;70.90;;;;;;5076830;28;20030;-73
2023/12/14 07:37:39;;;;;;;0.40;0.40;;;8.80;71.00;;;;;;5093153;28;20584;-72
2023/12/14 07:40:05;;;;;;;0.70;0.70;;;8.90;70.80;;;;;;5072557;28;20020;-72
2023/12/14 07:42:31;;;;;;;0.52;0.52;;;8.80;70.70;;;;;;5093553;28;20111;-72
2023/12/14 07:44:57;;;;;;;0.60;0.60;;;8.80;70.70;;;;;;5090576;28;20039;-72
2023/12/14 07:47:22;;;;;;;0.70;0.70;;;8.80;70.80;;;;;;5089145;28;20449;-71
2023/12/14 07:49:48;;;;;;;0.93;0.93;;;8.80;70.80;;;;;;5084607;28;20042;-72
2023/12/14 07:52:13;;;;;;;0.57;0.57;;;8.80;70.70;;;;;;5080073;28;20425;-72
2023/12/14 07:54:39;;;;;;;1.05;1.05;;;8.80;70.60;;;;;;5092775;28;20544;-72
2023/12/14 07:57:05;;;;;;;0.65;0.65;;;8.80;70.80;;;;;;5092903;28;20436;-72
2023/12/14 07:59:30;;;;;;;0.60;0.60;;;8.80;70.80;;;;;;5081813;28;20068;-72
2023/12/14 08:01:56;;;;;;;0.80;0.80;;;8.80;70.50;;;;;;5092912;28;20028;-72
2023/12/14 08:04:21;;;;;;;0.60;0.60;;;8.70;70.30;;;;;;5092647;28;20047;-71
2023/12/14 08:06:47;;;;;;;0.60;0.60;;;8.70;70.60;;;;;;5091324;28;20036;-71
2023/12/14 08:09:12;;;;;;;0.50;0.50;;;8.70;70.40;;;;;;5092851;28;20403;-71
2023/12/14 08:11:38;;;;;;;0.90;0.90;;;8.70;70.50;;;;;;5091611;28;20394;-71
2023/12/14 08:14:03;;;;;;;0.60;0.60;;;8.70;70.60;;;;;;5093072;28;20047;-71
2023/12/14 08:16:29;;;;;;;0.90;0.90;;;8.60;70.40;;;;;;5092838;28;20028;-72
2023/12/14 08:18:55;;;;;;;0.85;0.70;;;8.60;70.60;;;;;;5091935;28;20055;-71
2023/12/14 08:21:20;;;;;;;0.45;0.45;;;8.60;70.70;;;;;;5093490;28;20028;-71
2023/12/14 08:23:46;;;;;;;0.43;0.43;;;8.60;70.80;;;;;;5092722;28;20465;-71
2023/12/14 08:26:12;;;;;;;0.63;0.63;;;8.60;70.60;;;;;;5093035;28;20028;-71
2023/12/14 08:28:39;;;;;;;0.50;0.50;;;8.60;70.50;;;;;;5090669;28;20028;-71
2023/12/14 08:31:04;;;;;;;0.50;0.50;;;8.60;70.70;;;;;;5092118;28;20024;-71
2023/12/14 08:33:30;;;;;;;0.50;0.50;;;8.60;70.80;;;;;;5092127;28;20024;-71
2023/12/14 08:35:56;;;;;;;0.63;0.63;;;8.60;70.60;;;;;;5074148;28;20024;-71
2023/12/14 08:38:22;;;;;;;0.50;0.50;;;8.60;70.60;;;;;;5092594;28;20598;-71
2023/12/14 08:40:47;;;;;;;1.02;0.95;;;8.50;70.50;;;;;;5091289;28;20059;-71
2023/12/14 08:43:13;;;;;;;0.47;0.47;;;8.50;70.70;;;;;;5092345;28;20432;-71
2023/12/14 08:45:39;;;;;;;1.42;1.15;;;8.60;70.80;;;;;;5090888;28;20110;-72
2023/12/14 08:48:05;;;;;;;0.50;0.50;;;8.60;70.90;;;;;;5091640;28;20395;-72
2023/12/14 08:50:30;;;;;;;0.40;0.40;;;8.60;70.60;;;;;;5091680;28;20090;-71
2023/12/14 08:52:58;;;;;;;0.50;0.50;;;8.60;70.80;;;;;;5071601;28;20032;-71
2023/12/14 08:55:24;;;;;;;0.55;0.55;;;8.60;70.70;;;;;;5091117;28;20491;-72
2023/12/14 08:57:50;;;;;;;0.50;0.50;;;8.60;70.70;;;;;;5091423;28;20043;-72
2023/12/14 09:00:17;;;;;;;2.00;1.85;;;8.60;71.00;;;;;;5090084;28;20050;-71
2023/12/14 09:02:43;;;;;;;0.65;0.65;;;8.60;70.90;;;;;;5091226;28;20036;-71
2023/12/14 09:05:09;;;;;;;0.70;0.70;;;8.60;70.90;;;;;;5091892;28;20580;-72
2023/12/14 09:07:34;;;;;;;0.50;0.50;;;8.70;71.00;;;;;;5072376;28;20058;-71
2023/12/14 09:10:00;;;;;;;0.57;0.57;;;8.70;71.20;;;;;;5090915;28;20044;-71
2023/12/14 09:12:25;;;;;;;0.40;0.40;;;8.70;71.20;;;;;;5091557;28;20103;-71
2023/12/14 09:14:51;;;;;;;0.50;0.50;;;8.70;71.30;;;;;;5095380;28;20024;-71
2023/12/14 09:17:16;;;;;;;1.00;0.95;;;8.80;71.30;;;;;;5094309;28;20036;-71
2023/12/14 09:19:42;;;;;;;0.60;0.60;;;8.80;71.20;;;;;;5094816;28;20028;-71
2023/12/14 09:22:07;;;;;;;1.25;1.15;;;8.80;71.20;;;;;;5094015;28;20078;-71
2023/12/14 09:24:33;;;;;;;0.50;0.50;;;8.80;71.30;;;;;;5094246;28;20055;-71
2023/12/14 09:26:58;;;;;;;0.40;0.40;;;8.90;71.20;;;;;;5094957;28;20024;-71
2023/12/14 09:29:24;;;;;;;0.50;0.50;;;8.90;71.10;;;;;;5093717;28;20032;-71
2023/12/14 09:31:50;;;;;;;0.68;0.68;;;8.90;71.10;;;;;;5094878;28;20024;-71
2023/12/14 09:34:15;;;;;;;0.80;0.80;;;9.00;71.40;;;;;;5093118;28;20034;-71
2023/12/14 09:36:41;;;;;;;0.40;0.40;;;9.00;71.30;;;;;;5094587;28;20063;-71
2023/12/14 09:39:10;;;;;;;0.65;0.65;;;9.00;71.20;;;;;;5075643;28;20457;-71
2023/12/14 09:41:38;;;;;;;0.40;0.40;;;9.10;71.30;;;;;;5094287;28;20028;-71
2023/12/14 09:44:06;;;;;;;0.95;0.95;;;9.10;71.50;;;;;;5075245;28;20079;-71
2023/12/14 09:46:36;;;;;;;0.60;0.60;;;9.20;71.40;;;;;;5093665;28;20035;-71
2023/12/14 09:49:04;;;;;;;1.27;1.23;;;9.20;71.40;;;;;;5075694;28;20055;-71
2023/12/14 09:51:29;;;;;;;0.50;0.50;;;9.20;71.20;;;;;;5092181;28;20041;-70
2023/12/14 09:53:58;;;;;;;0.52;0.52;;;9.20;71.10;;;;;;5093224;28;20467;-70
2023/12/14 09:56:25;;;;;;;0.80;0.80;;;9.20;71.20;;;;;;5093275;28;20028;-70
2023/12/14 09:58:51;;;;;;;0.45;0.45;;;9.20;71.20;;;;;;5092196;28;20081;-70
2023/12/14 10:01:24;;;;;;;1.15;1.13;;;9.20;71.30;;;;;;5093374;28;20072;-70
2023/12/14 10:03:50;;;;;;;0.50;0.50;;;9.30;71.40;;;;;;5092730;28;20024;-69
2023/12/14 10:06:15;;;;;;;2.28;1.15;;;9.30;71.30;;;;;;5093133;28;20036;-70
2023/12/14 10:08:41;;;;;;;0.50;0.50;;;9.30;71.00;;;;;;5093003;28;20471;-70
2023/12/14 10:11:15;;;;;;;0.70;0.70;;;9.30;70.90;;;;;;5091506;28;20034;-70
2023/12/14 10:13:41;;;;;;;0.75;0.65;;;9.30;70.70;;;;;;5092933;28;20479;-70
2023/12/14 10:16:07;;;;;;;0.40;0.40;;;9.30;70.80;;;;;;5092437;28;20020;-70
2023/12/14 10:18:36;;;;;;;0.50;0.50;;;9.20;70.90;;;;;;5093112;28;20055;-69
2023/12/14 10:21:02;;;;;;;0.43;0.43;;;9.30;70.80;;;;;;5092358;28;20028;-69
2023/12/14 10:23:27;;;;;;;0.50;0.50;;;9.30;70.80;;;;;;5092602;28;20487;-70
2023/12/14 10:25:53;;;;;;;0.63;0.63;;;9.30;70.80;;;;;;5091759;28;20032;-69
2023/12/14 10:28:18;;;;;;;0.50;0.50;;;9.30;70.90;;;;;;5092618;28;20093;-69
2023/12/14 10:30:44;;;;;;;0.70;0.70;;;9.30;71.00;;;;;;5092800;28;20038;-69
2023/12/14 10:33:10;;;;;;;0.50;0.50;;;9.30;71.10;;;;;;5073188;28;20040;-70
2023/12/14 10:35:35;;;;;;;0.52;0.52;;;9.30;71.20;;;;;;5092915;28;20027;-69
2023/12/14 10:38:05;;;;;;;0.50;0.50;;;9.40;71.20;;;;;;5091927;28;20479;-69
2023/12/14 10:40:36;;;;;;;0.50;0.50;;;9.40;71.40;;;;;;5092353;28;20404;-69
2023/12/14 10:43:03;;;;;;;;;;;9.50;71.30;;;;;;5092775;28;20052;-69
2023/12/14 10:45:32;;;;;;;0.50;0.50;;;9.50;71.30;;;;;;5091716;28;19912;-71
2023/12/14 10:48:00;;;;;;;0.40;0.40;;;9.50;71.30;;;;;;5092275;28;20086;-70
2023/12/14 10:50:30;;;;;;;0.50;0.50;;;9.60;71.40;;;;;;5090822;28;20016;-70
2023/12/14 10:52:59;;;;;;;0.47;0.47;;;9.60;71.70;;;;;;5092465;28;20097;-70
2023/12/14 10:55:33;;;;;;;0.60;0.60;;;9.70;71.90;;;;;;5090983;28;20103;-69
2023/12/14 10:57:58;;;;;;;0.40;0.40;;;9.80;71.90;;;;;;5074115;28;20068;-70
2023/12/14 11:00:24;;;;;;;0.50;0.50;;;9.80;71.60;;;;;;5092446;28;20027;-70
2023/12/14 11:02:52;;;;;;;0.50;0.50;;;9.80;71.50;;;;;;5092186;28;20115;-71
2023/12/14 11:05:22;;;;;;;0.65;0.65;;;9.80;71.60;;;;;;5092064;28;20028;-71
2023/12/14 11:07:52;;;;;;;0.50;0.50;;;9.90;71.40;;;;;;5092382;28;20562;-71
2023/12/14 11:10:26;;;;;;;0.50;0.50;;;9.80;71.30;;;;;;5072635;28;20152;-71
2023/12/14 11:13:12;;;;;;;0.63;0.63;;;9.80;71.40;;;;;;5072307;28;20508;-71
2023/12/14 11:15:39;;;;;;;0.40;0.40;;;9.90;71.30;;;;;;5071489;28;20028;-71
2023/12/14 11:18:11;;;;;;;1.17;1.17;;;9.90;71.10;;;;;;5070609;28;20029;-71
2023/12/14 11:20:45;;;;;;;0.60;0.60;;;9.80;70.90;;;;;;5084128;28;20032;-71
2023/12/14 11:23:13;;;;;;;1.00;0.93;;;9.80;71.00;;;;;;5074347;28;20035;-71
2023/12/14 11:25:39;;;;;;;0.40;0.40;;;9.80;71.20;;;;;;5091740;28;20028;-71
2023/12/14 11:28:07;;;;;;;0.60;0.60;;;9.80;71.40;;;;;;5092292;28;20028;-71
2023/12/14 11:30:33;;;;;;;0.50;0.50;;;9.90;71.60;;;;;;5092678;28;20463;-71
2023/12/14 11:32:59;;;;;;;0.47;0.47;;;9.90;71.50;;;;;;5091456;28;20043;-71
2023/12/14 11:35:24;;;;;;;0.50;0.50;;;10.00;71.60;;;;;;5091849;28;20150;-71
2023/12/14 11:37:50;;;;;;;0.43;0.43;;;10.00;71.80;;;;;;5092089;28;20059;-71
2023/12/14 11:40:22;;;;;;;0.60;0.60;;;10.10;71.70;;;;;;5092102;28;20016;-71
2023/12/14 11:43:00;;;;;;;0.40;0.40;;;10.20;71.70;;;;;;5088290;28;20133;-71
2023/12/14 11:45:26;;;;;;;0.52;0.52;;;10.20;71.80;;;;;;5091338;28;20027;-71
2023/12/14 11:47:52;;;;;;;0.50;0.50;;;10.30;71.80;;;;;;5087144;28;20028;-71
2023/12/14 11:50:18;;;;;;;0.40;0.40;;;10.30;71.60;;;;;;5085028;28;20028;-71
2023/12/14 11:52:44;;;;;;;0.50;0.50;;;10.30;71.50;;;;;;5081558;28;20039;-71
2023/12/14 11:55:11;;;;;;;0.50;0.50;;;10.40;71.70;;;;;;5072315;28;20049;-71
2023/12/14 11:57:36;;;;;;;0.50;0.50;;;10.50;72.00;;;;;;5075625;28;20410;-71
2023/12/14 12:00:03;;;;;;;0.40;0.40;;;10.60;72.00;;;;;;5092307;28;20024;-71
2023/12/14 12:02:28;;;;;;;0.40;0.40;;;10.70;72.10;;;;;;5092440;28;20433;-71
2023/12/14 12:04:54;;;;;;;0.70;0.70;;;10.80;72.00;;;;;;5091557;28;20032;-71
2023/12/14 12:07:20;;;;;;;0.50;0.50;;;10.90;72.20;;;;;;5092199;28;20039;-71
2023/12/14 12:09:46;;;;;;;1.10;1.05;;;11.00;72.10;;;;;;5090750;28;20028;-70
2023/12/14 12:12:12;;;;;;;0.50;0.50;;;11.10;72.20;;;;;;5090776;28;20032;-70
2023/12/14 12:14:39;;;;;;;1.55;0.82;;;11.30;72.40;;;;;;5090447;28;20119;-70
2023/12/14 12:17:06;;;;;;;0.52;0.52;;;11.40;72.30;;;;;;5091221;28;20518;-70
2023/12/14 12:19:36;;;;;;;0.73;0.73;;;11.60;72.50;;;;;;5072202;28;20032;-70
2023/12/14 12:22:02;;;;;;;1.10;0.70;;;11.70;72.10;;;;;;5090912;28;20024;-70
2023/12/14 12:24:28;;;;;;;0.70;0.70;;;11.80;71.90;;;;;;5089639;28;20126;-70
2023/12/14 12:26:55;;;;;;;0.50;0.50;;;11.80;72.00;;;;;;5091300;28;20446;-70
2023/12/14 12:29:20;;;;;;;4.28;0.82;;;11.90;71.70;;;;;;5090015;28;20028;-70
2023/12/14 12:31:46;;;;;;;0.50;0.50;;;11.90;71.90;;;;;;5091308;28;20517;-70
2023/12/14 12:34:12;;;;;;;1.17;1.08;;;11.90;71.80;;;;;;5090600;28;20020;-70
2023/12/14 12:36:38;;;;;;;0.50;0.50;;;12.00;71.80;;;;;;5089955;28;20028;-70
2023/12/14 12:39:05;;;;;;;0.70;0.70;;;11.90;71.50;;;;;;5091023;28;20490;-71
2023/12/14 12:41:32;;;;;;;0.45;0.45;;;11.90;71.20;;;;;;5090415;28;20603;-70
2023/12/14 12:43:57;;;;;;;0.45;0.45;;;11.80;71.50;;;;;;5090768;28;20029;-70
2023/12/14 12:46:23;;;;;;;0.40;0.40;;;11.80;71.80;;;;;;5092077;28;20040;-70
2023/12/14 12:48:49;;;;;;;0.50;0.50;;;11.90;71.90;;;;;;5094936;28;20032;-70